Time;durP1;ratioP1;P1;durP2;ratioP2;P2;SDS_P1;SDS_P2;PMS_P1;PMS_P2;Temp;Humidity;BMP_temperature;BMP_pressure;BME280_temperature;BME280_humidity;BME280_pressure;Samples;Min_cycle;Max_cycle;Signal;HPM_P1;HPM_P2
2021/12/07 05:15:29;;;;;;;0.80;0.80;;;-0.10;99.90;;;;;;5833081;23;20271;-65
2021/12/07 05:18:03;;;;;;;0.70;0.70;;;-0.10;99.90;;;;;;4957104;28;20218;-63
2021/12/07 05:34:50;;;;;;;1.00;1.00;;;0.10;99.90;;;;;;4957321;29;20263;-66
2021/12/07 05:40:07;;;;;;;0.90;0.90;;;0.10;99.90;;;;;;4957108;29;20183;-67
2021/12/07 05:42:35;;;;;;;0.73;0.73;;;0.10;99.90;;;;;;4957067;28;20604;-67
2021/12/07 05:45:02;;;;;;;0.90;0.90;;;0.10;99.90;;;;;;4956571;28;20743;-67
2021/12/07 05:47:30;;;;;;;0.70;0.70;;;0.10;99.90;;;;;;4956863;28;20631;-67
2021/12/07 05:49:57;;;;;;;0.80;0.80;;;0.10;99.90;;;;;;4956707;28;20294;-68
2021/12/07 05:52:24;;;;;;;0.70;0.70;;;0.10;99.90;;;;;;4956778;28;20208;-68
2021/12/07 05:54:51;;;;;;;0.70;0.70;;;0.10;99.90;;;;;;4956595;28;20295;-67
2021/12/07 05:57:18;;;;;;;0.90;0.90;;;0.00;99.90;;;;;;4956367;28;20640;-66
2021/12/07 05:59:45;;;;;;;0.70;0.70;;;0.10;99.90;;;;;;4956601;28;20208;-67
2021/12/07 06:02:12;;;;;;;0.70;0.70;;;0.10;99.90;;;;;;4956583;28;20300;-66
2021/12/07 06:04:41;;;;;;;0.70;0.70;;;0.10;99.90;;;;;;4956622;28;20295;-66
2021/12/07 11:36:15;;;;;;;0.80;0.80;;;4.10;99.90;;;;;;5124054;23;20239;-69
2021/12/07 11:38:42;;;;;;;1.85;1.20;;;4.10;99.90;;;;;;4955288;28;20223;-68
2021/12/07 11:41:19;;;;;;;2.15;0.95;;;4.10;99.90;;;;;;4954892;28;20255;-68
2021/12/07 11:43:57;;;;;;;1.23;1.00;;;4.20;99.90;;;;;;4955325;28;20570;-68
2021/12/07 11:46:27;;;;;;;0.98;0.98;;;4.30;99.90;;;;;;4935978;29;20244;-68
2021/12/07 11:49:15;;;;;;;1.00;1.00;;;4.30;99.90;;;;;;4939532;29;20208;-68
2021/12/07 11:51:46;;;;;;;1.40;0.98;;;4.30;99.90;;;;;;4939655;29;20229;-68
2021/12/07 11:54:15;;;;;;;1.40;1.27;;;4.40;99.90;;;;;;4939909;29;20221;-68
2021/12/07 11:56:43;;;;;;;1.23;0.88;;;4.40;99.90;;;;;;4939877;29;20231;-70
2021/12/07 11:59:10;;;;;;;1.13;1.05;;;4.30;99.90;;;;;;4939823;29;20204;-68
2021/12/07 12:01:38;;;;;;;1.17;1.08;;;4.40;99.90;;;;;;4939735;29;20614;-68
2021/12/07 12:04:05;;;;;;;1.08;1.05;;;4.40;99.90;;;;;;4939636;29;20240;-68
2021/12/07 12:06:33;;;;;;;1.10;1.10;;;4.30;99.90;;;;;;4939511;29;20256;-68
2021/12/07 12:09:02;;;;;;;1.67;1.15;;;4.40;99.90;;;;;;4939310;29;20240;-68
2021/12/07 12:11:37;;;;;;;0.98;0.98;;;4.30;99.90;;;;;;4939327;29;20625;-68
2021/12/07 12:14:20;;;;;;;1.08;1.00;;;4.40;99.90;;;;;;4939473;29;20634;-68
2021/12/07 12:16:57;;;;;;;1.85;0.90;;;4.50;99.90;;;;;;4939201;29;20185;-68
2021/12/07 12:22:06;;;;;;;1.00;1.00;;;4.60;99.90;;;;;;4978647;23;20319;-73
2021/12/07 12:24:44;;;;;;;1.48;1.48;;;4.70;99.90;;;;;;4958216;28;20230;-73
2021/12/07 12:27:13;;;;;;;0.82;0.82;;;4.70;99.90;;;;;;4958227;28;20208;-73
2021/12/07 12:29:43;;;;;;;1.30;0.90;;;4.70;99.90;;;;;;4958079;28;20248;-74
2021/12/07 12:32:10;;;;;;;3.95;0.90;;;4.70;99.90;;;;;;4958147;28;20236;-74
2021/12/07 12:34:47;;;;;;;0.95;0.93;;;4.60;99.90;;;;;;4957829;28;20645;-74
2021/12/07 12:37:18;;;;;;;1.45;1.00;;;4.70;99.90;;;;;;4958021;28;20231;-74
2021/12/07 12:39:53;;;;;;;0.75;0.75;;;4.70;99.90;;;;;;4957814;28;20223;-74
2021/12/07 12:42:30;;;;;;;1.38;1.00;;;4.60;99.90;;;;;;4957757;28;20238;-74
2021/12/07 12:45:00;;;;;;;1.77;1.30;;;4.40;99.90;;;;;;4957939;28;20192;-74
2021/12/07 12:47:28;;;;;;;1.58;1.27;;;4.30;99.90;;;;;;4957407;28;20228;-74
2021/12/07 12:49:56;;;;;;;1.05;1.05;;;4.20;99.90;;;;;;4957651;28;20256;-75
2021/12/07 12:52:42;;;;;;;1.17;1.13;;;4.10;99.90;;;;;;4957751;28;20203;-74
2021/12/07 12:55:42;;;;;;;0.80;0.80;;;3.90;99.90;;;;;;4957673;28;20193;-74
2021/12/07 12:58:15;;;;;;;1.10;1.10;;;3.80;99.90;;;;;;4957734;28;20232;-74
2021/12/07 13:01:09;;;;;;;2.28;1.10;;;3.70;99.90;;;;;;4956790;28;20224;-74
2021/12/07 13:03:55;;;;;;;1.00;0.98;;;3.70;99.90;;;;;;4957749;28;20195;-74
2021/12/07 13:06:42;;;;;;;1.45;1.00;;;3.60;99.90;;;;;;4957635;28;20554;-74
2021/12/07 13:09:11;;;;;;;1.00;0.90;;;3.60;99.90;;;;;;4957600;28;20192;-74
2021/12/07 13:11:41;;;;;;;0.85;0.85;;;3.60;99.90;;;;;;4957466;28;20679;-74
2021/12/07 13:14:29;;;;;;;1.25;1.05;;;3.50;99.90;;;;;;4957232;28;20250;-74
2021/12/07 13:17:04;;;;;;;0.90;0.90;;;3.50;99.90;;;;;;4957252;28;20655;-74
2021/12/07 13:19:32;;;;;;;0.75;0.75;;;3.50;99.90;;;;;;4957319;28;20238;-74
2021/12/07 13:22:04;;;;;;;1.00;1.00;;;3.50;99.90;;;;;;4956943;28;20680;-74
2021/12/07 13:24:35;;;;;;;0.90;0.90;;;3.50;99.90;;;;;;4957388;28;20231;-74
2021/12/07 13:27:10;;;;;;;0.63;0.63;;;3.50;99.90;;;;;;4958074;28;20259;-74
2021/12/07 13:29:44;;;;;;;0.93;0.90;;;3.60;99.90;;;;;;4957103;28;20234;-74
2021/12/07 13:32:11;;;;;;;0.80;0.80;;;3.60;99.90;;;;;;4957341;28;20219;-74
2021/12/07 13:34:40;;;;;;;1.45;1.00;;;3.70;99.90;;;;;;4956904;28;20240;-73
2021/12/07 13:37:08;;;;;;;1.95;1.23;;;3.60;99.90;;;;;;4956907;28;20294;-74
2021/12/07 13:39:45;;;;;;;1.58;1.27;;;3.60;99.90;;;;;;4957102;28;20250;-74
2021/12/07 13:42:28;;;;;;;1.77;0.95;;;3.50;99.90;;;;;;4957066;28;20596;-73
2021/12/07 13:45:01;;;;;;;3.40;1.17;;;3.50;99.90;;;;;;4957009;28;20193;-73
2021/12/07 13:47:30;;;;;;;1.33;1.23;;;3.40;99.90;;;;;;4956748;28;20222;-73
2021/12/07 13:49:59;;;;;;;2.28;1.40;;;3.30;99.90;;;;;;4957007;28;20676;-74
2021/12/07 13:52:30;;;;;;;2.95;1.08;;;3.30;99.90;;;;;;4956572;28;20651;-74
2021/12/07 13:55:00;;;;;;;1.15;0.90;;;3.20;99.90;;;;;;4956707;28;20224;-74
2021/12/07 13:57:30;;;;;;;1.00;1.00;;;3.20;99.90;;;;;;4956944;28;20238;-73
2021/12/07 14:00:04;;;;;;;1.00;0.95;;;3.10;99.90;;;;;;4956643;28;20262;-73
2021/12/07 14:02:31;;;;;;;1.25;1.10;;;3.10;99.90;;;;;;4956661;28;20360;-73
2021/12/07 14:05:07;;;;;;;0.80;0.80;;;2.90;99.90;;;;;;4956295;28;20710;-73
2021/12/07 14:07:35;;;;;;;1.20;1.02;;;2.90;99.90;;;;;;4956529;28;20216;-73
2021/12/07 14:10:12;;;;;;;0.80;0.80;;;2.80;99.90;;;;;;4956503;28;20266;-73
2021/12/07 14:12:40;;;;;;;1.00;0.80;;;2.80;99.90;;;;;;4956222;28;20579;-74
2021/12/07 14:15:15;;;;;;;1.15;1.05;;;2.70;99.90;;;;;;4956455;28;20246;-74
2021/12/07 14:17:45;;;;;;;1.40;0.85;;;2.70;99.90;;;;;;4956167;28;20223;-73
2021/12/07 14:20:13;;;;;;;0.70;0.70;;;2.60;99.90;;;;;;4956284;28;20686;-73
2021/12/07 14:22:46;;;;;;;0.80;0.80;;;2.50;99.90;;;;;;4956387;28;20239;-73
2021/12/07 14:25:18;;;;;;;0.90;0.90;;;2.50;99.90;;;;;;4956487;28;20192;-73
2021/12/07 14:27:45;;;;;;;0.80;0.80;;;2.40;99.90;;;;;;4956666;28;20204;-74
2021/12/07 14:30:15;;;;;;;0.95;0.95;;;2.30;99.90;;;;;;4956209;28;20266;-74
2021/12/07 14:32:42;;;;;;;0.88;0.80;;;2.20;99.90;;;;;;4955937;28;20239;-74
2021/12/07 14:35:09;;;;;;;0.70;0.70;;;2.20;99.90;;;;;;4955926;28;20247;-74
2021/12/07 14:37:36;;;;;;;1.02;1.02;;;2.10;99.90;;;;;;4955857;28;20235;-74
2021/12/07 14:40:04;;;;;;;0.90;0.90;;;2.00;99.90;;;;;;4955983;28;20259;-73
2021/12/07 14:42:32;;;;;;;0.90;0.90;;;2.00;99.90;;;;;;4956016;28;20247;-74
2021/12/07 14:45:00;;;;;;;0.60;0.60;;;1.90;99.90;;;;;;4955929;28;20215;-72
2021/12/07 14:47:29;;;;;;;0.90;0.90;;;1.80;99.90;;;;;;4955880;28;20247;-72
2021/12/07 14:49:58;;;;;;;0.95;0.95;;;1.70;99.90;;;;;;4956049;28;20255;-70
2021/12/07 14:52:28;;;;;;;0.88;0.88;;;1.70;99.90;;;;;;4955501;28;20660;-70
2021/12/07 14:54:57;;;;;;;0.93;0.82;;;1.60;99.90;;;;;;4956748;28;20556;-70
2021/12/07 14:57:25;;;;;;;0.70;0.70;;;1.60;99.90;;;;;;4960117;28;20263;-70
2021/12/07 14:59:57;;;;;;;0.90;0.90;;;1.50;99.90;;;;;;4959939;28;20287;-70
2021/12/07 15:02:25;;;;;;;0.75;0.75;;;1.40;99.90;;;;;;4959739;28;20192;-70
2021/12/07 15:04:59;;;;;;;0.75;0.75;;;1.40;99.90;;;;;;4960084;28;20215;-70
2021/12/07 15:07:32;;;;;;;0.70;0.70;;;1.30;99.90;;;;;;4956216;28;20208;-70
2021/12/07 15:10:00;;;;;;;0.70;0.70;;;1.30;99.90;;;;;;4956097;28;20287;-70
2021/12/07 15:12:27;;;;;;;0.70;0.70;;;1.30;99.90;;;;;;4955773;28;20246;-72
2021/12/07 15:14:59;;;;;;;0.60;0.60;;;1.20;99.90;;;;;;4955958;28;20239;-71
2021/12/07 15:17:27;;;;;;;0.90;0.90;;;1.10;99.90;;;;;;4955554;28;20220;-71
2021/12/07 15:19:54;;;;;;;0.90;0.90;;;1.10;99.90;;;;;;4955193;28;20270;-71
2021/12/07 15:22:23;;;;;;;1.33;1.00;;;1.10;99.90;;;;;;4955123;28;20200;-71
2021/12/07 15:24:50;;;;;;;1.10;1.10;;;1.00;99.90;;;;;;4956161;28;20203;-71
2021/12/07 15:27:21;;;;;;;1.75;1.42;;;0.90;99.90;;;;;;4955262;28;20293;-72
2021/12/07 15:29:51;;;;;;;1.30;1.23;;;0.90;99.90;;;;;;4955563;28;20255;-72
2021/12/07 15:32:19;;;;;;;1.48;1.38;;;0.80;99.90;;;;;;4955638;28;20231;-72
2021/12/07 15:34:47;;;;;;;1.10;1.10;;;0.80;99.90;;;;;;4955266;28;20243;-71
2021/12/07 15:37:16;;;;;;;1.10;1.10;;;0.70;99.90;;;;;;4955359;28;20292;-72
2021/12/07 15:39:46;;;;;;;1.27;1.15;;;0.70;99.90;;;;;;4955100;28;20243;-72
2021/12/07 15:42:16;;;;;;;1.10;1.10;;;0.70;99.90;;;;;;4955609;28;20247;-71
2021/12/07 15:44:47;;;;;;;1.35;1.25;;;0.60;99.90;;;;;;4955352;28;20707;-71
2021/12/07 15:47:18;;;;;;;1.13;1.02;;;0.60;99.90;;;;;;4955298;28;20218;-71
2021/12/07 15:49:49;;;;;;;1.05;1.05;;;0.50;99.90;;;;;;4955204;28;20247;-71
2021/12/07 15:52:19;;;;;;;1.00;1.00;;;0.50;99.90;;;;;;4955420;28;20216;-71
2021/12/07 15:54:56;;;;;;;1.52;0.98;;;0.50;99.90;;;;;;4954863;28;20250;-71
2021/12/07 15:57:24;;;;;;;1.23;1.23;;;0.50;99.90;;;;;;4955368;28;20227;-71
2021/12/07 15:59:59;;;;;;;1.00;1.00;;;0.50;99.90;;;;;;4954781;28;20270;-71
2021/12/07 16:02:27;;;;;;;1.30;1.20;;;0.50;99.90;;;;;;4955122;28;20219;-72
2021/12/07 16:05:07;;;;;;;1.02;1.02;;;0.50;99.90;;;;;;4955244;28;20242;-71
2021/12/07 16:07:34;;;;;;;1.10;1.10;;;0.60;99.90;;;;;;4955067;28;20212;-71
2021/12/07 16:10:12;;;;;;;1.50;1.50;;;0.60;99.90;;;;;;4955179;28;20224;-71
2021/12/07 16:12:38;;;;;;;1.23;1.23;;;0.60;99.90;;;;;;4955277;28;20215;-74
2021/12/07 16:15:12;;;;;;;1.67;1.67;;;0.60;99.90;;;;;;4955149;28;20627;-72
2021/12/07 16:17:40;;;;;;;1.85;1.85;;;0.60;99.90;;;;;;4955090;28;20220;-71
2021/12/07 16:20:09;;;;;;;1.88;1.88;;;0.60;99.90;;;;;;4954566;28;20719;-71
2021/12/07 16:22:37;;;;;;;2.13;2.03;;;0.60;99.90;;;;;;4954651;28;20248;-71
2021/12/07 16:25:05;;;;;;;1.88;1.88;;;0.60;99.90;;;;;;4954952;28;20239;-71
2021/12/07 16:27:33;;;;;;;2.03;1.92;;;0.60;99.90;;;;;;4954826;28;20318;-72
2021/12/07 16:30:01;;;;;;;2.15;2.08;;;0.60;99.90;;;;;;4954723;28;20255;-72
2021/12/07 16:32:28;;;;;;;1.80;1.70;;;0.50;99.90;;;;;;4954807;28;20263;-72
2021/12/07 16:34:55;;;;;;;1.90;1.80;;;0.50;99.90;;;;;;4956375;28;20235;-72
2021/12/07 16:37:22;;;;;;;2.55;2.13;;;0.50;99.90;;;;;;4958358;28;20238;-72
2021/12/07 16:39:51;;;;;;;2.80;2.60;;;0.40;99.90;;;;;;4958561;28;20224;-71
2021/12/07 16:42:19;;;;;;;2.45;2.17;;;0.40;99.90;;;;;;4958132;28;20656;-71
2021/12/07 16:44:48;;;;;;;1.92;1.83;;;0.30;99.90;;;;;;4958081;28;20702;-71
2021/12/07 16:47:16;;;;;;;1.95;1.85;;;0.30;99.90;;;;;;4957986;28;20307;-71
2021/12/07 16:49:43;;;;;;;1.80;1.70;;;0.20;99.90;;;;;;4958331;28;20240;-73
2021/12/07 16:52:11;;;;;;;1.98;1.88;;;0.20;99.90;;;;;;4957648;28;20687;-72
2021/12/07 16:54:38;;;;;;;1.95;1.73;;;0.10;99.90;;;;;;4957600;28;20627;-72
2021/12/07 16:57:06;;;;;;;1.75;1.65;;;0.10;99.90;;;;;;4957597;28;20242;-72
2021/12/07 16:59:33;;;;;;;1.92;1.80;;;0.00;99.90;;;;;;4957752;28;20235;-73
2021/12/07 17:02:02;;;;;;;1.90;1.80;;;0.00;99.90;;;;;;4957853;28;20235;-73
2021/12/07 17:04:29;;;;;;;2.00;1.90;;;-0.10;99.90;;;;;;4957706;28;20243;-72
2021/12/07 17:06:56;;;;;;;1.60;1.60;;;-0.10;99.90;;;;;;4957585;28;20246;-72
2021/12/07 17:09:27;;;;;;;1.65;1.65;;;-0.10;99.90;;;;;;4957446;28;20247;-73
2021/12/07 17:11:54;;;;;;;1.40;1.40;;;-0.20;99.90;;;;;;4957594;28;20567;-72
2021/12/07 17:14:21;;;;;;;1.95;1.85;;;-0.20;99.90;;;;;;4957560;28;20231;-72
2021/12/07 17:16:48;;;;;;;2.08;1.92;;;-0.20;99.90;;;;;;4957738;28;20258;-72
2021/12/07 17:19:20;;;;;;;1.70;1.60;;;-0.30;99.90;;;;;;4958414;28;20623;-74
2021/12/07 17:21:47;;;;;;;1.40;1.40;;;-0.30;99.90;;;;;;4957147;28;20235;-73
2021/12/07 17:24:15;;;;;;;2.35;2.03;;;-0.30;99.90;;;;;;4957577;28;20290;-73
2021/12/07 17:26:42;;;;;;;1.65;1.60;;;-0.30;99.90;;;;;;4957369;28;20200;-73
2021/12/07 17:29:09;;;;;;;1.30;1.30;;;-0.40;99.90;;;;;;4956855;28;20266;-73
2021/12/07 17:31:36;;;;;;;1.55;1.55;;;-0.40;99.90;;;;;;4956957;28;20263;-73
2021/12/07 17:34:04;;;;;;;1.70;1.60;;;-0.40;99.90;;;;;;4958000;28;20235;-73
2021/12/07 17:36:32;;;;;;;1.45;1.45;;;-0.40;99.90;;;;;;4957358;28;20200;-75
2021/12/07 17:38:59;;;;;;;1.60;1.50;;;-0.40;99.90;;;;;;4957308;28;20232;-74
2021/12/07 17:41:26;;;;;;;1.30;1.30;;;-0.40;99.90;;;;;;4956890;28;20767;-73
2021/12/07 17:43:53;;;;;;;1.42;1.42;;;-0.40;99.90;;;;;;4957055;28;20236;-73
2021/12/07 17:46:20;;;;;;;1.40;1.40;;;-0.50;99.90;;;;;;4956543;28;20240;-73
2021/12/07 17:48:47;;;;;;;1.58;1.50;;;-0.50;99.90;;;;;;4956702;28;20266;-74
2021/12/07 17:51:14;;;;;;;1.40;1.40;;;-0.50;99.90;;;;;;4956866;28;20259;-73
2021/12/07 17:53:43;;;;;;;1.23;1.23;;;-0.50;99.90;;;;;;4956773;28;20233;-71
2021/12/07 17:56:09;;;;;;;1.38;1.38;;;-0.50;99.90;;;;;;4956815;28;20231;-72
2021/12/07 17:58:36;;;;;;;1.40;1.30;;;-0.50;99.90;;;;;;4956695;28;20254;-72
2021/12/07 18:01:03;;;;;;;1.23;1.23;;;-0.50;99.90;;;;;;4956350;28;20255;-73
2021/12/07 18:03:30;;;;;;;1.35;1.35;;;-0.50;99.90;;;;;;4956437;28;20247;-73
2021/12/07 18:05:58;;;;;;;1.15;1.15;;;-0.50;99.90;;;;;;4956504;28;20631;-74
2021/12/07 18:08:26;;;;;;;1.27;1.27;;;-0.50;99.90;;;;;;4956637;28;20259;-74
2021/12/07 18:10:54;;;;;;;1.00;1.00;;;-0.50;99.90;;;;;;4956607;28;20256;-73
2021/12/07 18:13:21;;;;;;;1.25;1.25;;;-0.50;99.90;;;;;;4956525;28;20242;-73
2021/12/07 18:15:48;;;;;;;1.20;1.20;;;-0.50;99.90;;;;;;4956549;28;20235;-73
2021/12/07 18:18:16;;;;;;;1.35;1.35;;;-0.40;99.90;;;;;;4956551;28;20203;-73
2021/12/07 18:20:44;;;;;;;1.20;1.20;;;-0.40;99.90;;;;;;4956641;28;20270;-72
2021/12/07 18:23:14;;;;;;;1.30;1.30;;;-0.40;99.90;;;;;;4956079;28;20714;-72
2021/12/07 18:25:43;;;;;;;1.10;1.10;;;-0.40;99.90;;;;;;4956293;28;20286;-72
2021/12/07 18:28:13;;;;;;;1.10;1.10;;;-0.40;99.90;;;;;;4955958;28;20270;-72
2021/12/07 18:30:46;;;;;;;1.30;1.30;;;-0.40;99.90;;;;;;4956304;28;20266;-72
2021/12/07 18:33:14;;;;;;;1.23;1.23;;;-0.40;99.90;;;;;;4956529;28;20198;-72
2021/12/07 18:35:42;;;;;;;1.10;1.10;;;-0.30;99.90;;;;;;4956208;28;20242;-72
2021/12/07 18:38:10;;;;;;;1.40;1.33;;;-0.30;99.90;;;;;;4956135;28;20235;-71
2021/12/07 18:40:38;;;;;;;1.02;1.02;;;-0.30;99.90;;;;;;4955780;28;20775;-71
2021/12/07 18:43:06;;;;;;;1.10;1.10;;;-0.30;99.90;;;;;;4955750;28;20243;-70
2021/12/07 18:45:34;;;;;;;1.23;1.23;;;-0.30;99.90;;;;;;4956088;28;20243;-70
2021/12/07 18:48:02;;;;;;;1.13;1.13;;;-0.30;99.90;;;;;;4955843;28;20252;-70
2021/12/07 18:50:30;;;;;;;1.48;1.48;;;-0.40;99.90;;;;;;4955803;28;20232;-71
2021/12/07 18:52:57;;;;;;;1.40;1.40;;;-0.40;99.90;;;;;;4955545;28;20236;-71
2021/12/07 18:55:25;;;;;;;1.40;1.40;;;-0.40;99.90;;;;;;4955808;28;20239;-70
2021/12/07 18:57:52;;;;;;;1.30;1.30;;;-0.40;99.90;;;;;;4955384;28;20203;-71
2021/12/07 19:00:23;;;;;;;1.40;1.40;;;-0.50;99.90;;;;;;4955726;28;20259;-70
2021/12/07 19:02:52;;;;;;;1.48;1.48;;;-0.50;99.90;;;;;;4956662;28;20254;-70
2021/12/07 19:05:19;;;;;;;1.25;1.25;;;-0.50;99.90;;;;;;4955570;28;20747;-70
2021/12/07 19:07:47;;;;;;;1.27;1.27;;;-0.60;99.90;;;;;;4955618;28;20245;-69
2021/12/07 19:10:17;;;;;;;1.50;1.50;;;-0.60;99.90;;;;;;4955347;28;20251;-69
2021/12/07 19:12:45;;;;;;;1.33;1.33;;;-0.60;99.90;;;;;;4955687;28;20236;-69
2021/12/07 19:15:12;;;;;;;1.30;1.30;;;-0.70;99.90;;;;;;4955553;28;20242;-69
2021/12/07 19:17:40;;;;;;;1.35;1.30;;;-0.70;99.90;;;;;;4955273;28;20239;-69
2021/12/07 19:20:11;;;;;;;1.13;1.13;;;-0.70;99.90;;;;;;4955212;28;20318;-69
2021/12/07 19:22:39;;;;;;;1.25;1.25;;;-0.70;99.90;;;;;;4955131;28;20282;-70
2021/12/07 19:25:07;;;;;;;1.27;1.27;;;-0.70;99.90;;;;;;4955216;28;20239;-70
2021/12/07 19:27:34;;;;;;;1.58;1.58;;;-0.80;99.90;;;;;;4955572;28;20208;-70
2021/12/07 19:30:02;;;;;;;1.60;1.50;;;-0.70;99.90;;;;;;4955123;28;20641;-69
2021/12/07 19:32:29;;;;;;;1.33;1.33;;;-0.80;99.90;;;;;;4955401;28;20204;-70
2021/12/07 19:34:56;;;;;;;1.60;1.60;;;-0.80;99.90;;;;;;4955117;28;20680;-70
2021/12/07 19:37:24;;;;;;;1.70;1.60;;;-0.80;99.90;;;;;;4955446;28;20239;-70
2021/12/07 19:39:51;;;;;;;1.52;1.52;;;-0.90;99.90;;;;;;4955404;28;20263;-70
2021/12/07 19:42:20;;;;;;;1.60;1.60;;;-0.90;99.90;;;;;;4955185;28;20210;-70
2021/12/07 19:44:47;;;;;;;2.08;1.98;;;-0.90;99.90;;;;;;4955024;28;20235;-70
2021/12/07 19:47:14;;;;;;;1.40;1.40;;;-0.90;99.90;;;;;;4955365;28;20693;-70
2021/12/07 19:49:41;;;;;;;1.98;1.88;;;-0.90;99.90;;;;;;4954880;28;20770;-70
2021/12/07 19:52:08;;;;;;;2.03;1.90;;;-0.90;99.90;;;;;;4955343;28;20243;-70
2021/12/07 19:54:37;;;;;;;2.00;1.90;;;-1.00;99.90;;;;;;4955609;28;20251;-70
2021/12/07 19:57:06;;;;;;;2.13;1.92;;;-1.00;99.90;;;;;;4955408;28;20243;-70
2021/12/07 19:59:36;;;;;;;1.77;1.77;;;-1.00;99.90;;;;;;4955440;28;20224;-70
2021/12/07 20:02:06;;;;;;;2.15;2.05;;;-1.00;99.90;;;;;;4955403;28;20230;-70
2021/12/07 20:04:33;;;;;;;2.20;2.03;;;-1.00;99.90;;;;;;4955139;28;20694;-70
2021/12/07 20:07:01;;;;;;;2.60;2.40;;;-1.00;99.90;;;;;;4955088;28;20240;-70
2021/12/07 20:09:28;;;;;;;2.28;2.17;;;-1.10;99.90;;;;;;4957374;28;20224;-70
2021/12/07 20:11:58;;;;;;;2.92;2.50;;;-1.00;99.90;;;;;;4958539;28;20262;-71
2021/12/07 20:14:28;;;;;;;2.83;2.63;;;-1.10;99.90;;;;;;4958773;28;20208;-70
2021/12/07 20:16:55;;;;;;;2.53;2.30;;;-1.10;99.90;;;;;;4958341;28;20667;-70
2021/12/07 20:19:22;;;;;;;3.30;2.30;;;-1.10;99.90;;;;;;4958460;28;20235;-70
2021/12/07 20:21:49;;;;;;;2.30;2.20;;;-1.10;99.90;;;;;;4958126;28;20280;-70
2021/12/07 20:24:16;;;;;;;2.50;2.30;;;-1.20;99.90;;;;;;4958395;28;20207;-70
2021/12/07 20:26:44;;;;;;;2.47;2.28;;;-1.20;99.90;;;;;;4958559;28;20231;-70
2021/12/07 20:29:13;;;;;;;2.60;2.40;;;-1.20;99.90;;;;;;4958357;28;20263;-70
2021/12/07 20:31:42;;;;;;;2.13;2.03;;;-1.20;99.90;;;;;;4957975;28;20263;-70
2021/12/07 20:34:09;;;;;;;2.63;2.42;;;-1.20;99.90;;;;;;4957997;28;20320;-70
2021/12/07 20:36:37;;;;;;;2.20;2.10;;;-1.30;99.90;;;;;;4958455;28;20235;-71
2021/12/07 20:39:05;;;;;;;2.40;2.20;;;-1.30;99.90;;;;;;4958786;28;20236;-71
2021/12/07 20:41:33;;;;;;;2.00;1.90;;;-1.30;99.90;;;;;;4958900;28;20255;-71
2021/12/07 20:44:02;;;;;;;2.40;2.25;;;-1.30;99.90;;;;;;4958351;28;20570;-71
2021/12/07 20:46:30;;;;;;;2.50;2.30;;;-1.30;99.90;;;;;;4958082;28;20242;-71
2021/12/07 20:48:57;;;;;;;2.13;1.98;;;-1.40;99.90;;;;;;4957604;28;20715;-71
2021/12/07 20:51:24;;;;;;;2.20;2.03;;;-1.40;99.90;;;;;;4957662;28;20255;-71
2021/12/07 20:53:53;;;;;;;2.35;2.08;;;-1.40;99.90;;;;;;4957923;28;20240;-71
2021/12/07 20:56:21;;;;;;;2.42;2.20;;;-1.40;99.90;;;;;;4957905;28;20204;-70
2021/12/07 20:58:48;;;;;;;2.30;2.10;;;-1.40;99.90;;;;;;4957819;28;20228;-70
2021/12/07 21:01:17;;;;;;;2.05;1.95;;;-1.40;99.90;;;;;;4957840;28;20592;-70
2021/12/07 21:03:47;;;;;;;2.38;2.28;;;-1.40;99.90;;;;;;4958649;28;20200;-70
2021/12/07 21:06:14;;;;;;;2.38;2.25;;;-1.40;99.90;;;;;;4958202;28;20250;-70
2021/12/07 21:08:42;;;;;;;3.17;2.88;;;-1.30;99.90;;;;;;4957785;28;20255;-70
2021/12/07 21:11:12;;;;;;;3.35;3.03;;;-1.30;99.90;;;;;;4957767;28;20255;-70
2021/12/07 21:13:40;;;;;;;3.05;2.85;;;-1.30;99.90;;;;;;4957662;28;20200;-70
2021/12/07 21:16:09;;;;;;;2.78;2.55;;;-1.30;99.90;;;;;;4957637;28;20236;-70
2021/12/07 21:18:37;;;;;;;2.75;2.55;;;-1.20;99.90;;;;;;4957592;28;20204;-70
2021/12/07 21:21:07;;;;;;;2.83;2.63;;;-1.20;99.90;;;;;;4956390;28;20263;-70
2021/12/07 21:23:35;;;;;;;2.40;2.30;;;-1.20;99.90;;;;;;4957864;28;20250;-70
2021/12/07 21:26:02;;;;;;;2.50;2.40;;;-1.20;99.90;;;;;;4957136;28;20707;-70
2021/12/07 21:28:29;;;;;;;2.67;2.47;;;-1.20;99.90;;;;;;4956955;28;20737;-70
2021/12/07 21:30:56;;;;;;;2.20;2.10;;;-1.20;99.90;;;;;;4957248;28;20270;-70
2021/12/07 21:33:23;;;;;;;2.40;2.25;;;-1.10;99.90;;;;;;4957313;28;20698;-70
2021/12/07 21:35:51;;;;;;;3.80;2.55;;;-1.20;99.90;;;;;;4956847;28;20707;-70
2021/12/07 21:38:19;;;;;;;1.70;1.70;;;-1.20;99.90;;;;;;4957170;28;20254;-70
2021/12/07 21:40:46;;;;;;;2.17;2.08;;;-1.20;99.90;;;;;;4957066;28;20302;-70
2021/12/07 21:43:14;;;;;;;2.67;2.47;;;-1.10;99.90;;;;;;4957099;28;20235;-69
2021/12/07 21:45:41;;;;;;;2.40;2.30;;;-1.10;99.90;;;;;;4956827;28;20701;-68
2021/12/07 21:48:08;;;;;;;2.40;2.30;;;-1.10;99.90;;;;;;4956683;28;20727;-68
2021/12/07 21:50:36;;;;;;;2.08;1.98;;;-1.10;99.90;;;;;;4956597;28;20707;-68
2021/12/07 21:53:08;;;;;;;1.83;1.73;;;-1.00;99.90;;;;;;4956617;28;20680;-68
2021/12/07 21:55:38;;;;;;;2.28;2.17;;;-1.00;99.90;;;;;;4957476;28;20192;-68
2021/12/07 21:58:05;;;;;;;1.70;1.70;;;-1.00;99.90;;;;;;4957150;28;20337;-68
2021/12/07 22:00:34;;;;;;;1.77;1.77;;;-0.90;99.90;;;;;;4956751;28;20255;-68
2021/12/07 22:03:03;;;;;;;1.80;1.80;;;-0.90;99.90;;;;;;4956682;28;20235;-68
2021/12/07 22:05:31;;;;;;;2.33;1.77;;;-0.80;99.90;;;;;;4956915;28;20204;-68
2021/12/07 22:07:58;;;;;;;1.85;1.75;;;-0.80;99.90;;;;;;4956307;28;20235;-68
2021/12/07 22:10:26;;;;;;;1.70;1.60;;;-0.70;99.90;;;;;;4956445;28;20710;-68
2021/12/07 22:12:54;;;;;;;1.50;1.50;;;-0.70;99.90;;;;;;4956665;28;20203;-68
2021/12/07 22:15:22;;;;;;;1.83;1.80;;;-0.70;99.90;;;;;;4956536;28;20238;-68
2021/12/07 22:17:49;;;;;;;1.73;1.63;;;-0.60;99.90;;;;;;4956612;28;20283;-68
2021/12/07 22:20:16;;;;;;;1.75;1.67;;;-0.60;99.90;;;;;;4956147;28;20290;-68
2021/12/07 22:22:44;;;;;;;2.40;2.10;;;-0.60;99.90;;;;;;4956405;28;20219;-68
2021/12/07 22:25:12;;;;;;;2.25;2.15;;;-0.60;99.90;;;;;;4956307;28;20371;-68
2021/12/07 22:27:39;;;;;;;3.20;2.72;;;-0.50;99.90;;;;;;4956234;28;20236;-68
2021/12/07 22:30:11;;;;;;;2.40;2.30;;;-0.50;99.90;;;;;;4955687;28;20727;-68
2021/12/07 22:32:39;;;;;;;2.95;2.67;;;-0.50;99.90;;;;;;4955893;28;20188;-68
